createdAt,value
2022-08-30T00:01:03.856Z,99.90
2022-08-30T00:03:42.814Z,99.90
2022-08-30T12:05:51.286Z,92.50
2022-08-30T12:08:24.238Z,92.80
2022-08-30T12:10:59.392Z,92.50
2022-08-30T12:13:52.954Z,92.80
2022-08-30T12:16:23.855Z,93.00
2022-08-30T12:19:19.009Z,93.10
2022-08-30T12:21:56.644Z,93.40
2022-08-30T12:24:32.599Z,93.40
2022-08-30T12:27:05.567Z,92.70
2022-08-30T12:29:33.584Z,92.80
2022-08-30T12:32:17.621Z,92.30
2022-08-30T12:34:44.504Z,93.00
2022-08-30T12:37:28.089Z,93.20
2022-08-30T12:40:10.342Z,93.70
2022-08-30T12:42:43.523Z,93.50
2022-08-30T12:45:17.161Z,94.20
2022-08-30T12:47:51.220Z,94.40
2022-08-30T12:50:26.556Z,95.10
2022-08-30T12:53:01.075Z,95.20
2022-08-30T12:55:33.890Z,95.60
2022-08-30T12:58:11.252Z,95.30
2022-08-30T13:00:44.347Z,95.80
2022-08-30T13:03:30.104Z,96.10
2022-08-30T13:05:57.686Z,95.90
2022-08-30T13:08:36.542Z,96.20
2022-08-30T13:11:08.810Z,95.60
2022-08-30T13:13:52.069Z,95.40
2022-08-30T13:16:22.450Z,95.00
2022-08-30T13:18:52.386Z,94.40
2022-08-30T13:21:31.015Z,93.70
2022-08-30T13:24:02.620Z,93.60
2022-08-30T13:26:42.249Z,93.70
2022-08-30T13:29:18.057Z,94.60
2022-08-30T13:31:45.208Z,93.80
2022-08-30T13:34:12.477Z,93.40
2022-08-30T13:36:47.587Z,93.30
2022-08-30T13:39:14.533Z,93.40
2022-08-30T13:41:41.437Z,93.40
2022-08-30T13:44:11.329Z,94.10
2022-08-30T13:46:43.148Z,93.60
2022-08-30T13:52:19.893Z,93.10
2022-08-30T13:54:49.967Z,93.90
2022-08-30T13:57:53.363Z,94.40
2022-08-30T14:00:09.916Z,93.70
2022-08-30T14:02:45.097Z,93.60
